sensor_id;sensor_type;location;lat;lon;timestamp;P1;durP1;ratioP1;P2;durP2;ratioP2
10166;SDS011;62970;53.130;8.244;2022-09-09T00:00:37;10.17;;;9.27;;
10166;SDS011;62970;53.130;8.244;2022-09-09T00:03:11;10.23;;;9.23;;
10166;SDS011;62970;53.130;8.244;2022-09-09T00:05:49;9.73;;;8.83;;
10166;SDS011;62970;53.130;8.244;2022-09-09T00:08:29;9.77;;;8.80;;
10166;SDS011;62970;53.130;8.244;2022-09-09T00:11:13;10.57;;;9.17;;
10166;SDS011;62970;53.130;8.244;2022-09-09T00:13:52;10.00;;;9.10;;
10166;SDS011;62970;53.130;8.244;2022-09-09T00:16:25;10.57;;;9.57;;
10166;SDS011;62970;53.130;8.244;2022-09-09T00:19:00;10.20;;;9.10;;
10166;SDS011;62970;53.130;8.244;2022-09-09T00:21:35;10.03;;;9.17;;
10166;SDS011;62970;53.130;8.244;2022-09-09T00:24:09;10.40;;;9.40;;
10166;SDS011;62970;53.130;8.244;2022-09-09T00:26:57;10.47;;;9.47;;
10166;SDS011;62970;53.130;8.244;2022-09-09T00:29:35;10.57;;;9.67;;
10166;SDS011;62970;53.130;8.244;2022-09-09T00:32:12;10.07;;;9.27;;
10166;SDS011;62970;53.130;8.244;2022-09-09T00:34:47;11.73;;;9.80;;
10166;SDS011;62970;53.130;8.244;2022-09-09T00:37:20;10.23;;;9.40;;
10166;SDS011;62970;53.130;8.244;2022-09-09T00:39:53;10.40;;;9.50;;
10166;SDS011;62970;53.130;8.244;2022-09-09T00:42:35;10.40;;;9.50;;
10166;SDS011;62970;53.130;8.244;2022-09-09T00:45:15;9.87;;;9.07;;
10166;SDS011;62970;53.130;8.244;2022-09-09T00:48:03;11.27;;;9.97;;
10166;SDS011;62970;53.130;8.244;2022-09-09T00:50:42;11.43;;;10.33;;
10166;SDS011;62970;53.130;8.244;2022-09-09T00:53:24;11.07;;;10.17;;
10166;SDS011;62970;53.130;8.244;2022-09-09T00:56:09;10.60;;;9.60;;
10166;SDS011;62970;53.130;8.244;2022-09-09T00:58:47;10.67;;;9.67;;
10166;SDS011;62970;53.130;8.244;2022-09-09T01:01:25;10.80;;;9.80;;
10166;SDS011;62970;53.130;8.244;2022-09-09T01:03:55;10.70;;;9.63;;
10166;SDS011;62970;53.130;8.244;2022-09-09T01:06:27;10.87;;;9.77;;
10166;SDS011;62970;53.130;8.244;2022-09-09T01:09:15;11.37;;;10.37;;
10166;SDS011;62970;53.130;8.244;2022-09-09T01:11:52;10.13;;;9.13;;
10166;SDS011;62970;53.130;8.244;2022-09-09T01:14:35;10.37;;;9.30;;
10166;SDS011;62970;53.130;8.244;2022-09-09T01:17:11;11.27;;;10.17;;
10166;SDS011;62970;53.130;8.244;2022-09-09T01:19:54;9.70;;;8.87;;
10166;SDS011;62970;53.130;8.244;2022-09-09T01:22:33;10.90;;;9.90;;
10166;SDS011;62970;53.130;8.244;2022-09-09T01:28:03;10.90;;;9.90;;
10166;SDS011;62970;53.130;8.244;2022-09-09T01:30:38;9.97;;;9.10;;
10166;SDS011;62970;53.130;8.244;2022-09-09T01:33:10;10.87;;;9.87;;
10166;SDS011;62970;53.130;8.244;2022-09-09T01:35:45;9.97;;;9.07;;
10166;SDS011;62970;53.130;8.244;2022-09-09T01:38:19;9.83;;;8.93;;
10166;SDS011;62970;53.130;8.244;2022-09-09T01:40:50;10.27;;;9.27;;
10166;SDS011;62970;53.130;8.244;2022-09-09T01:43:23;10.40;;;9.40;;
10166;SDS011;62970;53.130;8.244;2022-09-09T01:45:53;10.93;;;9.83;;
10166;SDS011;62970;53.130;8.244;2022-09-09T01:48:27;9.83;;;8.93;;
10166;SDS011;62970;53.130;8.244;2022-09-09T01:50:57;9.47;;;8.57;;
10166;SDS011;62970;53.130;8.244;2022-09-09T01:53:25;10.37;;;9.47;;
10166;SDS011;62970;53.130;8.244;2022-09-09T01:55:59;9.93;;;9.00;;
10166;SDS011;62970;53.130;8.244;2022-09-09T01:58:46;10.37;;;9.37;;
10166;SDS011;62970;53.130;8.244;2022-09-09T02:01:33;9.27;;;8.37;;
10166;SDS011;62970;53.130;8.244;2022-09-09T02:04:18;9.50;;;8.70;;
10166;SDS011;62970;53.130;8.244;2022-09-09T02:07:01;9.80;;;8.87;;
10166;SDS011;62970;53.130;8.244;2022-09-09T02:09:34;9.77;;;8.87;;
10166;SDS011;62970;53.130;8.244;2022-09-09T02:12:05;9.87;;;8.93;;
10166;SDS011;62970;53.130;8.244;2022-09-09T02:14:45;10.13;;;9.23;;
10166;SDS011;62970;53.130;8.244;2022-09-09T02:17:22;10.03;;;9.07;;
10166;SDS011;62970;53.130;8.244;2022-09-09T02:19:57;9.50;;;8.60;;
10166;SDS011;62970;53.130;8.244;2022-09-09T02:22:34;9.73;;;8.83;;
10166;SDS011;62970;53.130;8.244;2022-09-09T02:25:08;9.50;;;8.70;;
10166;SDS011;62970;53.130;8.244;2022-09-09T02:27:41;9.33;;;8.37;;
10166;SDS011;62970;53.130;8.244;2022-09-09T02:30:16;9.53;;;8.73;;
10166;SDS011;62970;53.130;8.244;2022-09-09T02:32:48;9.90;;;8.90;;
10166;SDS011;62970;53.130;8.244;2022-09-09T02:35:22;9.53;;;8.73;;
10166;SDS011;62970;53.130;8.244;2022-09-09T02:37:53;10.37;;;9.27;;
10166;SDS011;62970;53.130;8.244;2022-09-09T02:40:28;9.13;;;8.33;;
10166;SDS011;62970;53.130;8.244;2022-09-09T02:42:57;10.67;;;9.53;;
10166;SDS011;62970;53.130;8.244;2022-09-09T02:45:33;9.67;;;8.77;;
10166;SDS011;62970;53.130;8.244;2022-09-09T02:48:12;10.37;;;9.47;;
10166;SDS011;62970;53.130;8.244;2022-09-09T02:50:51;9.90;;;8.90;;
10166;SDS011;62970;53.130;8.244;2022-09-09T02:53:32;8.97;;;8.23;;
10166;SDS011;62970;53.130;8.244;2022-09-09T02:56:13;9.43;;;8.53;;
10166;SDS011;62970;53.130;8.244;2022-09-09T02:58:46;9.83;;;9.00;;
10166;SDS011;62970;53.130;8.244;2022-09-09T03:01:19;9.23;;;8.43;;
10166;SDS011;62970;53.130;8.244;2022-09-09T03:03:49;9.40;;;8.60;;
10166;SDS011;62970;53.130;8.244;2022-09-09T03:06:20;9.33;;;8.53;;
10166;SDS011;62970;53.130;8.244;2022-09-09T03:08:49;8.40;;;7.57;;
10166;SDS011;62970;53.130;8.244;2022-09-09T03:11:18;8.77;;;8.07;;
10166;SDS011;62970;53.130;8.244;2022-09-09T03:13:47;9.03;;;8.23;;
10166;SDS011;62970;53.130;8.244;2022-09-09T03:16:21;9.23;;;8.33;;
10166;SDS011;62970;53.130;8.244;2022-09-09T03:18:50;9.27;;;8.37;;
10166;SDS011;62970;53.130;8.244;2022-09-09T03:21:19;9.17;;;8.37;;
10166;SDS011;62970;53.130;8.244;2022-09-09T03:23:48;8.60;;;7.87;;
10166;SDS011;62970;53.130;8.244;2022-09-09T03:26:17;8.17;;;7.37;;
10166;SDS011;62970;53.130;8.244;2022-09-09T03:28:46;8.50;;;7.70;;
10166;SDS011;62970;53.130;8.244;2022-09-09T03:31:16;8.40;;;7.57;;
10166;SDS011;62970;53.130;8.244;2022-09-09T03:33:49;8.73;;;7.93;;
10166;SDS011;62970;53.130;8.244;2022-09-09T03:36:18;8.07;;;7.30;;
10166;SDS011;62970;53.130;8.244;2022-09-09T03:38:47;7.63;;;6.93;;
10166;SDS011;62970;53.130;8.244;2022-09-09T03:41:16;8.67;;;7.33;;
10166;SDS011;62970;53.130;8.244;2022-09-09T03:43:48;7.97;;;7.17;;
10166;SDS011;62970;53.130;8.244;2022-09-09T03:46:18;8.43;;;7.60;;
10166;SDS011;62970;53.130;8.244;2022-09-09T03:48:51;7.87;;;7.10;;
10166;SDS011;62970;53.130;8.244;2022-09-09T03:51:21;7.23;;;6.63;;
10166;SDS011;62970;53.130;8.244;2022-09-09T03:53:50;8.07;;;7.37;;
10166;SDS011;62970;53.130;8.244;2022-09-09T03:56:23;8.00;;;7.20;;
10166;SDS011;62970;53.130;8.244;2022-09-09T03:58:52;7.53;;;6.83;;
10166;SDS011;62970;53.130;8.244;2022-09-09T04:01:22;7.50;;;6.43;;
10166;SDS011;62970;53.130;8.244;2022-09-09T04:03:54;7.10;;;6.40;;
10166;SDS011;62970;53.130;8.244;2022-09-09T04:06:23;7.47;;;6.63;;
10166;SDS011;62970;53.130;8.244;2022-09-09T04:08:55;6.57;;;5.97;;
10166;SDS011;62970;53.130;8.244;2022-09-09T04:11:23;7.77;;;7.07;;
10166;SDS011;62970;53.130;8.244;2022-09-09T04:13:53;7.70;;;7.00;;
10166;SDS011;62970;53.130;8.244;2022-09-09T04:16:25;6.80;;;6.20;;
10166;SDS011;62970;53.130;8.244;2022-09-09T04:18:56;7.03;;;6.33;;
10166;SDS011;62970;53.130;8.244;2022-09-09T04:21:26;6.60;;;6.03;;
10166;SDS011;62970;53.130;8.244;2022-09-09T04:23:55;6.87;;;6.17;;
10166;SDS011;62970;53.130;8.244;2022-09-09T04:26:25;6.67;;;5.97;;
10166;SDS011;62970;53.130;8.244;2022-09-09T04:28:54;6.77;;;6.17;;
10166;SDS011;62970;53.130;8.244;2022-09-09T04:31:23;6.87;;;6.23;;
10166;SDS011;62970;53.130;8.244;2022-09-09T04:33:53;6.90;;;6.17;;
10166;SDS011;62970;53.130;8.244;2022-09-09T04:36:24;7.17;;;6.50;;
10166;SDS011;62970;53.130;8.244;2022-09-09T04:38:54;6.03;;;5.53;;
10166;SDS011;62970;53.130;8.244;2022-09-09T04:41:23;6.07;;;5.57;;
10166;SDS011;62970;53.130;8.244;2022-09-09T04:43:52;6.13;;;5.60;;
10166;SDS011;62970;53.130;8.244;2022-09-09T04:46:22;6.50;;;6.00;;
10166;SDS011;62970;53.130;8.244;2022-09-09T04:48:51;6.37;;;5.87;;
10166;SDS011;62970;53.130;8.244;2022-09-09T04:51:20;6.33;;;5.73;;
10166;SDS011;62970;53.130;8.244;2022-09-09T04:53:53;6.40;;;5.60;;
10166;SDS011;62970;53.130;8.244;2022-09-09T04:56:22;6.80;;;6.00;;
10166;SDS011;62970;53.130;8.244;2022-09-09T04:58:51;6.33;;;5.73;;
10166;SDS011;62970;53.130;8.244;2022-09-09T05:01:21;5.80;;;5.40;;
10166;SDS011;62970;53.130;8.244;2022-09-09T05:03:52;6.70;;;5.80;;
10166;SDS011;62970;53.130;8.244;2022-09-09T05:06:21;6.30;;;5.67;;
10166;SDS011;62970;53.130;8.244;2022-09-09T05:08:54;5.93;;;5.43;;
10166;SDS011;62970;53.130;8.244;2022-09-09T05:11:26;6.67;;;5.13;;
10166;SDS011;62970;53.130;8.244;2022-09-09T05:13:57;6.27;;;5.70;;
10166;SDS011;62970;53.130;8.244;2022-09-09T05:16:26;6.47;;;5.67;;
10166;SDS011;62970;53.130;8.244;2022-09-09T05:18:56;6.90;;;5.57;;
10166;SDS011;62970;53.130;8.244;2022-09-09T05:21:30;6.23;;;5.47;;
10166;SDS011;62970;53.130;8.244;2022-09-09T05:24:00;6.27;;;5.67;;
10166;SDS011;62970;53.130;8.244;2022-09-09T05:26:29;6.27;;;5.77;;
10166;SDS011;62970;53.130;8.244;2022-09-09T05:28:58;7.60;;;5.77;;
10166;SDS011;62970;53.130;8.244;2022-09-09T05:31:28;6.07;;;5.43;;
10166;SDS011;62970;53.130;8.244;2022-09-09T05:33:58;5.97;;;5.47;;
10166;SDS011;62970;53.130;8.244;2022-09-09T05:36:30;6.70;;;6.10;;
10166;SDS011;62970;53.130;8.244;2022-09-09T05:38:59;6.13;;;5.53;;
10166;SDS011;62970;53.130;8.244;2022-09-09T05:41:29;5.90;;;5.37;;
10166;SDS011;62970;53.130;8.244;2022-09-09T05:43:58;6.87;;;5.50;;
10166;SDS011;62970;53.130;8.244;2022-09-09T05:46:28;6.10;;;5.50;;
10166;SDS011;62970;53.130;8.244;2022-09-09T05:48:58;6.87;;;6.13;;
10166;SDS011;62970;53.130;8.244;2022-09-09T05:51:27;6.67;;;5.60;;
10166;SDS011;62970;53.130;8.244;2022-09-09T05:54:00;6.40;;;5.80;;
10166;SDS011;62970;53.130;8.244;2022-09-09T05:56:29;6.83;;;6.23;;
10166;SDS011;62970;53.130;8.244;2022-09-09T05:58:58;7.50;;;5.97;;
10166;SDS011;62970;53.130;8.244;2022-09-09T06:01:29;6.37;;;5.77;;
10166;SDS011;62970;53.130;8.244;2022-09-09T06:04:01;5.93;;;5.43;;
10166;SDS011;62970;53.130;8.244;2022-09-09T06:06:34;5.67;;;5.17;;
10166;SDS011;62970;53.130;8.244;2022-09-09T06:09:07;5.10;;;4.50;;
10166;SDS011;62970;53.130;8.244;2022-09-09T06:11:38;5.47;;;4.80;;
10166;SDS011;62970;53.130;8.244;2022-09-09T06:14:11;5.97;;;4.50;;
10166;SDS011;62970;53.130;8.244;2022-09-09T06:16:41;5.70;;;3.93;;
10166;SDS011;62970;53.130;8.244;2022-09-09T06:19:11;5.70;;;3.90;;
10166;SDS011;62970;53.130;8.244;2022-09-09T06:21:44;5.43;;;3.53;;
10166;SDS011;62970;53.130;8.244;2022-09-09T06:24:14;3.67;;;3.37;;
10166;SDS011;62970;53.130;8.244;2022-09-09T06:26:45;3.87;;;3.57;;
10166;SDS011;62970;53.130;8.244;2022-09-09T06:29:14;4.83;;;3.40;;
10166;SDS011;62970;53.130;8.244;2022-09-09T06:31:43;3.93;;;3.37;;
10166;SDS011;62970;53.130;8.244;2022-09-09T06:34:13;3.70;;;3.40;;
10166;SDS011;62970;53.130;8.244;2022-09-09T06:36:46;3.83;;;3.33;;
10166;SDS011;62970;53.130;8.244;2022-09-09T06:39:16;3.90;;;3.47;;
10166;SDS011;62970;53.130;8.244;2022-09-09T06:41:45;3.87;;;3.57;;
10166;SDS011;62970;53.130;8.244;2022-09-09T06:44:18;3.93;;;3.63;;
10166;SDS011;62970;53.130;8.244;2022-09-09T06:46:47;3.73;;;3.43;;
10166;SDS011;62970;53.130;8.244;2022-09-09T06:49:17;6.03;;;3.47;;
10166;SDS011;62970;53.130;8.244;2022-09-09T06:51:49;3.67;;;3.37;;
10166;SDS011;62970;53.130;8.244;2022-09-09T06:54:19;3.80;;;3.23;;
10166;SDS011;62970;53.130;8.244;2022-09-09T06:56:49;3.17;;;2.97;;
10166;SDS011;62970;53.130;8.244;2022-09-09T06:59:18;5.33;;;3.60;;
10166;SDS011;62970;53.130;8.244;2022-09-09T07:01:47;3.30;;;2.97;;
10166;SDS011;62970;53.130;8.244;2022-09-09T07:04:17;3.97;;;3.57;;
10166;SDS011;62970;53.130;8.244;2022-09-09T07:06:46;3.70;;;3.17;;
10166;SDS011;62970;53.130;8.244;2022-09-09T07:09:21;3.77;;;3.47;;
10166;SDS011;62970;53.130;8.244;2022-09-09T07:11:50;3.00;;;2.70;;
10166;SDS011;62970;53.130;8.244;2022-09-09T07:14:20;2.77;;;2.57;;
10166;SDS011;62970;53.130;8.244;2022-09-09T07:16:49;3.33;;;2.57;;
10166;SDS011;62970;53.130;8.244;2022-09-09T07:19:19;3.40;;;2.73;;
10166;SDS011;62970;53.130;8.244;2022-09-09T07:21:51;3.27;;;3.07;;
10166;SDS011;62970;53.130;8.244;2022-09-09T07:24:20;7.60;;;2.73;;
10166;SDS011;62970;53.130;8.244;2022-09-09T07:26:49;3.07;;;2.80;;
10166;SDS011;62970;53.130;8.244;2022-09-09T07:29:19;4.37;;;3.23;;
10166;SDS011;62970;53.130;8.244;2022-09-09T07:31:48;3.47;;;3.00;;
10166;SDS011;62970;53.130;8.244;2022-09-09T07:34:17;4.43;;;3.27;;
10166;SDS011;62970;53.130;8.244;2022-09-09T07:36:47;4.43;;;3.60;;
10166;SDS011;62970;53.130;8.244;2022-09-09T07:39:19;3.90;;;3.50;;
10166;SDS011;62970;53.130;8.244;2022-09-09T07:41:48;4.90;;;3.83;;
10166;SDS011;62970;53.130;8.244;2022-09-09T07:44:19;5.00;;;3.33;;
10166;SDS011;62970;53.130;8.244;2022-09-09T07:46:52;4.40;;;4.00;;
10166;SDS011;62970;53.130;8.244;2022-09-09T07:49:21;4.17;;;3.30;;
10166;SDS011;62970;53.130;8.244;2022-09-09T07:51:50;4.13;;;3.60;;
10166;SDS011;62970;53.130;8.244;2022-09-09T07:54:22;5.00;;;3.77;;
10166;SDS011;62970;53.130;8.244;2022-09-09T07:56:51;4.27;;;3.27;;
10166;SDS011;62970;53.130;8.244;2022-09-09T07:59:21;4.57;;;3.67;;
10166;SDS011;62970;53.130;8.244;2022-09-09T08:01:51;4.67;;;3.70;;
10166;SDS011;62970;53.130;8.244;2022-09-09T08:04:22;4.67;;;3.53;;
10166;SDS011;62970;53.130;8.244;2022-09-09T08:06:54;4.67;;;3.40;;
10166;SDS011;62970;53.130;8.244;2022-09-09T08:09:28;4.00;;;3.57;;
10166;SDS011;62970;53.130;8.244;2022-09-09T08:11:59;5.40;;;3.67;;
10166;SDS011;62970;53.130;8.244;2022-09-09T08:14:29;3.57;;;3.27;;
10166;SDS011;62970;53.130;8.244;2022-09-09T08:16:58;3.93;;;3.30;;
10166;SDS011;62970;53.130;8.244;2022-09-09T08:19:27;4.47;;;3.30;;
10166;SDS011;62970;53.130;8.244;2022-09-09T08:21:59;5.03;;;3.37;;
10166;SDS011;62970;53.130;8.244;2022-09-09T08:24:35;3.80;;;3.10;;
10166;SDS011;62970;53.130;8.244;2022-09-09T08:27:04;5.10;;;3.03;;
10166;SDS011;62970;53.130;8.244;2022-09-09T08:29:35;4.53;;;3.27;;
10166;SDS011;62970;53.130;8.244;2022-09-09T08:32:06;6.00;;;3.37;;
10166;SDS011;62970;53.130;8.244;2022-09-09T08:34:36;3.47;;;2.83;;
10166;SDS011;62970;53.130;8.244;2022-09-09T08:37:06;3.50;;;2.83;;
10166;SDS011;62970;53.130;8.244;2022-09-09T08:39:38;4.60;;;2.60;;
10166;SDS011;62970;53.130;8.244;2022-09-09T08:42:18;3.13;;;2.87;;
10166;SDS011;62970;53.130;8.244;2022-09-09T08:45:12;3.40;;;2.60;;
10166;SDS011;62970;53.130;8.244;2022-09-09T08:48:01;2.90;;;2.37;;
10166;SDS011;62970;53.130;8.244;2022-09-09T08:50:40;3.40;;;2.23;;
10166;SDS011;62970;53.130;8.244;2022-09-09T08:53:14;3.13;;;2.27;;
10166;SDS011;62970;53.130;8.244;2022-09-09T08:55:51;4.03;;;2.40;;
10166;SDS011;62970;53.130;8.244;2022-09-09T08:58:25;3.70;;;2.10;;
10166;SDS011;62970;53.130;8.244;2022-09-09T09:01:12;3.97;;;1.93;;
10166;SDS011;62970;53.130;8.244;2022-09-09T09:04:05;2.83;;;1.70;;
10166;SDS011;62970;53.130;8.244;2022-09-09T09:06:48;2.43;;;2.03;;
10166;SDS011;62970;53.130;8.244;2022-09-09T09:09:31;2.97;;;2.03;;
10166;SDS011;62970;53.130;8.244;2022-09-09T09:12:17;2.37;;;1.97;;
10166;SDS011;62970;53.130;8.244;2022-09-09T09:14:50;2.67;;;2.40;;
10166;SDS011;62970;53.130;8.244;2022-09-09T09:17:21;3.80;;;2.57;;
10166;SDS011;62970;53.130;8.244;2022-09-09T09:19:54;4.03;;;2.03;;
10166;SDS011;62970;53.130;8.244;2022-09-09T09:22:25;3.23;;;2.13;;
10166;SDS011;62970;53.130;8.244;2022-09-09T09:25:05;1.97;;;1.70;;
10166;SDS011;62970;53.130;8.244;2022-09-09T09:27:46;3.03;;;2.10;;
10166;SDS011;62970;53.130;8.244;2022-09-09T09:30:31;2.47;;;1.70;;
10166;SDS011;62970;53.130;8.244;2022-09-09T09:33:08;7.43;;;2.10;;
10166;SDS011;62970;53.130;8.244;2022-09-09T09:35:45;2.03;;;1.80;;
10166;SDS011;62970;53.130;8.244;2022-09-09T09:38:19;4.60;;;2.10;;
10166;SDS011;62970;53.130;8.244;2022-09-09T09:40:50;2.30;;;1.73;;
10166;SDS011;62970;53.130;8.244;2022-09-09T09:43:27;2.47;;;1.80;;
10166;SDS011;62970;53.130;8.244;2022-09-09T09:45:59;2.27;;;1.90;;
10166;SDS011;62970;53.130;8.244;2022-09-09T09:48:31;2.10;;;1.90;;
10166;SDS011;62970;53.130;8.244;2022-09-09T09:51:00;1.70;;;1.50;;
10166;SDS011;62970;53.130;8.244;2022-09-09T09:53:36;2.83;;;1.90;;
10166;SDS011;62970;53.130;8.244;2022-09-09T09:56:07;2.57;;;1.77;;
10166;SDS011;62970;53.130;8.244;2022-09-09T09:58:50;2.90;;;1.73;;
10166;SDS011;62970;53.130;8.244;2022-09-09T10:01:24;3.70;;;1.97;;
10166;SDS011;62970;53.130;8.244;2022-09-09T10:03:59;2.40;;;1.87;;
10166;SDS011;62970;53.130;8.244;2022-09-09T10:06:31;2.37;;;1.90;;
10166;SDS011;62970;53.130;8.244;2022-09-09T10:09:03;3.17;;;2.00;;
10166;SDS011;62970;53.130;8.244;2022-09-09T10:11:50;4.50;;;2.03;;
10166;SDS011;62970;53.130;8.244;2022-09-09T10:14:34;3.00;;;1.93;;
10166;SDS011;62970;53.130;8.244;2022-09-09T10:17:16;1.57;;;1.47;;
10166;SDS011;62970;53.130;8.244;2022-09-09T10:19:59;2.63;;;1.90;;
10166;SDS011;62970;53.130;8.244;2022-09-09T10:22:46;5.43;;;2.27;;
10166;SDS011;62970;53.130;8.244;2022-09-09T10:25:26;4.20;;;1.80;;
10166;SDS011;62970;53.130;8.244;2022-09-09T10:28:20;3.63;;;2.10;;
10166;SDS011;62970;53.130;8.244;2022-09-09T10:31:15;2.87;;;1.77;;
10166;SDS011;62970;53.130;8.244;2022-09-09T10:34:05;2.50;;;1.90;;
10166;SDS011;62970;53.130;8.244;2022-09-09T10:36:49;2.90;;;1.90;;
10166;SDS011;62970;53.130;8.244;2022-09-09T10:39:24;5.03;;;1.90;;
10166;SDS011;62970;53.130;8.244;2022-09-09T10:42:06;3.03;;;1.73;;
10166;SDS011;62970;53.130;8.244;2022-09-09T10:44:56;5.57;;;1.90;;
10166;SDS011;62970;53.130;8.244;2022-09-09T10:47:54;3.63;;;1.80;;
10166;SDS011;62970;53.130;8.244;2022-09-09T10:50:50;1.87;;;1.60;;
10166;SDS011;62970;53.130;8.244;2022-09-09T10:53:28;2.83;;;1.77;;
10166;SDS011;62970;53.130;8.244;2022-09-09T10:56:06;4.00;;;1.63;;
10166;SDS011;62970;53.130;8.244;2022-09-09T10:58:40;4.43;;;1.50;;
10166;SDS011;62970;53.130;8.244;2022-09-09T11:01:17;3.20;;;1.60;;
10166;SDS011;62970;53.130;8.244;2022-09-09T11:03:55;2.47;;;1.73;;
10166;SDS011;62970;53.130;8.244;2022-09-09T11:06:30;1.80;;;1.50;;
10166;SDS011;62970;53.130;8.244;2022-09-09T11:09:13;1.93;;;1.70;;
10166;SDS011;62970;53.130;8.244;2022-09-09T11:11:47;2.77;;;1.87;;
10166;SDS011;62970;53.130;8.244;2022-09-09T11:14:22;2.47;;;1.73;;
10166;SDS011;62970;53.130;8.244;2022-09-09T11:17:02;3.10;;;2.00;;
10166;SDS011;62970;53.130;8.244;2022-09-09T11:19:41;3.63;;;2.00;;
10166;SDS011;62970;53.130;8.244;2022-09-09T11:22:15;2.90;;;2.00;;
10166;SDS011;62970;53.130;8.244;2022-09-09T11:24:54;4.17;;;2.43;;
10166;SDS011;62970;53.130;8.244;2022-09-09T11:27:29;3.83;;;2.20;;
10166;SDS011;62970;53.130;8.244;2022-09-09T11:30:15;4.17;;;2.50;;
10166;SDS011;62970;53.130;8.244;2022-09-09T11:39:00;2.80;;;2.23;;
10166;SDS011;62970;53.130;8.244;2022-09-09T11:42:04;4.67;;;2.20;;
10166;SDS011;62970;53.130;8.244;2022-09-09T11:44:35;2.57;;;2.37;;
10166;SDS011;62970;53.130;8.244;2022-09-09T11:47:14;2.50;;;2.20;;
10166;SDS011;62970;53.130;8.244;2022-09-09T11:49:54;4.60;;;2.80;;
10166;SDS011;62970;53.130;8.244;2022-09-09T11:52:40;3.93;;;2.30;;
10166;SDS011;62970;53.130;8.244;2022-09-09T11:55:20;5.47;;;2.07;;
10166;SDS011;62970;53.130;8.244;2022-09-09T11:57:57;3.63;;;2.43;;
10166;SDS011;62970;53.130;8.244;2022-09-09T12:00:29;2.37;;;1.70;;
10166;SDS011;62970;53.130;8.244;2022-09-09T12:03:03;4.57;;;2.23;;
10166;SDS011;62970;53.130;8.244;2022-09-09T12:05:37;3.93;;;2.03;;
10166;SDS011;62970;53.130;8.244;2022-09-09T12:08:16;3.33;;;2.10;;
10166;SDS011;62970;53.130;8.244;2022-09-09T12:10:55;2.87;;;2.17;;
10166;SDS011;62970;53.130;8.244;2022-09-09T12:13:28;5.13;;;2.53;;
10166;SDS011;62970;53.130;8.244;2022-09-09T12:15:59;4.33;;;2.30;;
10166;SDS011;62970;53.130;8.244;2022-09-09T12:18:32;3.33;;;2.40;;
10166;SDS011;62970;53.130;8.244;2022-09-09T12:21:06;3.87;;;2.30;;
10166;SDS011;62970;53.130;8.244;2022-09-09T12:23:53;3.77;;;2.13;;
10166;SDS011;62970;53.130;8.244;2022-09-09T12:26:30;4.67;;;2.40;;
10166;SDS011;62970;53.130;8.244;2022-09-09T12:29:05;3.70;;;2.50;;
10166;SDS011;62970;53.130;8.244;2022-09-09T12:31:46;4.03;;;2.17;;
10166;SDS011;62970;53.130;8.244;2022-09-09T12:34:30;3.43;;;2.03;;
10166;SDS011;62970;53.130;8.244;2022-09-09T12:37:06;2.47;;;2.27;;
10166;SDS011;62970;53.130;8.244;2022-09-09T12:39:50;3.43;;;2.47;;
10166;SDS011;62970;53.130;8.244;2022-09-09T12:42:24;3.30;;;2.47;;
10166;SDS011;62970;53.130;8.244;2022-09-09T12:44:55;3.77;;;2.40;;
10166;SDS011;62970;53.130;8.244;2022-09-09T12:47:33;3.57;;;2.60;;
10166;SDS011;62970;53.130;8.244;2022-09-09T12:50:15;2.87;;;2.57;;
10166;SDS011;62970;53.130;8.244;2022-09-09T12:52:48;3.10;;;2.70;;
10166;SDS011;62970;53.130;8.244;2022-09-09T12:55:23;4.23;;;2.63;;
10166;SDS011;62970;53.130;8.244;2022-09-09T12:57:56;4.20;;;2.83;;
10166;SDS011;62970;53.130;8.244;2022-09-09T13:00:29;3.10;;;2.17;;
10166;SDS011;62970;53.130;8.244;2022-09-09T13:03:00;4.13;;;2.50;;
10166;SDS011;62970;53.130;8.244;2022-09-09T13:05:34;4.93;;;2.50;;
10166;SDS011;62970;53.130;8.244;2022-09-09T13:08:06;2.50;;;2.20;;
10166;SDS011;62970;53.130;8.244;2022-09-09T13:10:43;4.13;;;2.50;;
10166;SDS011;62970;53.130;8.244;2022-09-09T13:13:21;6.40;;;2.63;;
10166;SDS011;62970;53.130;8.244;2022-09-09T13:15:55;3.47;;;2.47;;
10166;SDS011;62970;53.130;8.244;2022-09-09T13:18:27;5.30;;;2.77;;
10166;SDS011;62970;53.130;8.244;2022-09-09T13:20:59;5.07;;;2.80;;
10166;SDS011;62970;53.130;8.244;2022-09-09T13:23:29;3.67;;;2.63;;
10166;SDS011;62970;53.130;8.244;2022-09-09T13:26:05;5.07;;;2.60;;
10166;SDS011;62970;53.130;8.244;2022-09-09T13:28:49;3.70;;;2.90;;
10166;SDS011;62970;53.130;8.244;2022-09-09T13:31:20;3.67;;;2.77;;
10166;SDS011;62970;53.130;8.244;2022-09-09T13:33:52;3.20;;;2.60;;
10166;SDS011;62970;53.130;8.244;2022-09-09T13:36:27;4.03;;;2.83;;
10166;SDS011;62970;53.130;8.244;2022-09-09T13:38:59;3.63;;;2.63;;
10166;SDS011;62970;53.130;8.244;2022-09-09T13:41:35;4.07;;;2.43;;
10166;SDS011;62970;53.130;8.244;2022-09-09T13:44:16;4.10;;;2.33;;
10166;SDS011;62970;53.130;8.244;2022-09-09T13:47:00;3.50;;;2.53;;
10166;SDS011;62970;53.130;8.244;2022-09-09T13:49:32;2.90;;;2.20;;
10166;SDS011;62970;53.130;8.244;2022-09-09T13:52:05;4.93;;;2.17;;
10166;SDS011;62970;53.130;8.244;2022-09-09T13:54:39;1.73;;;1.63;;
10166;SDS011;62970;53.130;8.244;2022-09-09T13:57:17;3.47;;;1.87;;
10166;SDS011;62970;53.130;8.244;2022-09-09T13:59:48;4.70;;;1.60;;
10166;SDS011;62970;53.130;8.244;2022-09-09T14:02:19;2.10;;;1.50;;
10166;SDS011;62970;53.130;8.244;2022-09-09T14:04:50;3.20;;;1.60;;
10166;SDS011;62970;53.130;8.244;2022-09-09T14:07:20;3.07;;;1.43;;
10166;SDS011;62970;53.130;8.244;2022-09-09T14:09:50;2.37;;;1.47;;
10166;SDS011;62970;53.130;8.244;2022-09-09T14:12:22;1.70;;;1.27;;
10166;SDS011;62970;53.130;8.244;2022-09-09T14:14:51;2.20;;;1.40;;
10166;SDS011;62970;53.130;8.244;2022-09-09T14:17:21;2.37;;;1.10;;
10166;SDS011;62970;53.130;8.244;2022-09-09T14:19:50;2.77;;;1.60;;
10166;SDS011;62970;53.130;8.244;2022-09-09T14:22:19;2.23;;;1.53;;
10166;SDS011;62970;53.130;8.244;2022-09-09T14:24:49;1.80;;;1.37;;
10166;SDS011;62970;53.130;8.244;2022-09-09T14:27:18;2.20;;;1.67;;
10166;SDS011;62970;53.130;8.244;2022-09-09T14:29:51;2.03;;;1.50;;
10166;SDS011;62970;53.130;8.244;2022-09-09T14:32:20;1.70;;;1.60;;
10166;SDS011;62970;53.130;8.244;2022-09-09T14:34:49;2.03;;;1.80;;
10166;SDS011;62970;53.130;8.244;2022-09-09T14:37:19;3.50;;;1.60;;
10166;SDS011;62970;53.130;8.244;2022-09-09T14:39:49;2.87;;;1.87;;
10166;SDS011;62970;53.130;8.244;2022-09-09T14:42:19;3.07;;;2.17;;
10166;SDS011;62970;53.130;8.244;2022-09-09T14:44:51;2.83;;;1.70;;
10166;SDS011;62970;53.130;8.244;2022-09-09T14:47:22;2.47;;;1.87;;
10166;SDS011;62970;53.130;8.244;2022-09-09T14:49:52;4.00;;;1.70;;
10166;SDS011;62970;53.130;8.244;2022-09-09T14:52:21;2.50;;;1.70;;
10166;SDS011;62970;53.130;8.244;2022-09-09T14:54:50;3.03;;;1.60;;
10166;SDS011;62970;53.130;8.244;2022-09-09T14:57:23;2.17;;;1.70;;
10166;SDS011;62970;53.130;8.244;2022-09-09T14:59:53;3.17;;;1.70;;
10166;SDS011;62970;53.130;8.244;2022-09-09T15:02:22;3.03;;;1.70;;
10166;SDS011;62970;53.130;8.244;2022-09-09T15:04:51;2.53;;;1.70;;
10166;SDS011;62970;53.130;8.244;2022-09-09T15:07:22;2.03;;;1.80;;
10166;SDS011;62970;53.130;8.244;2022-09-09T15:09:53;2.67;;;1.53;;
10166;SDS011;62970;53.130;8.244;2022-09-09T15:12:25;1.60;;;1.43;;
10166;SDS011;62970;53.130;8.244;2022-09-09T15:14:56;2.87;;;1.63;;
10166;SDS011;62970;53.130;8.244;2022-09-09T15:17:27;2.83;;;1.77;;
10166;SDS011;62970;53.130;8.244;2022-09-09T15:19:58;3.00;;;1.70;;
10166;SDS011;62970;53.130;8.244;2022-09-09T15:22:28;1.60;;;1.50;;
10166;SDS011;62970;53.130;8.244;2022-09-09T15:24:57;2.37;;;1.50;;
10166;SDS011;62970;53.130;8.244;2022-09-09T15:27:29;2.10;;;1.40;;
10166;SDS011;62970;53.130;8.244;2022-09-09T15:30:00;2.03;;;1.50;;
10166;SDS011;62970;53.130;8.244;2022-09-09T15:32:30;1.73;;;1.20;;
10166;SDS011;62970;53.130;8.244;2022-09-09T15:35:00;3.50;;;1.40;;